Whitehorse International Airport
CYXY : rendu visible

Aérodrome :











RETROUVEZ-NOUS SUR...

 
LOGIN :

S'inscrire | Disclaimer

   EN    FR    IT 

 









Légende :    VFR   VFR Marginal   IFR   IFR Intensif   IFR Très Intensif
Visi : 
Plafond : 
>= 8 km
>= 3000ft
5 à 8 km
1000 à 3000 ft
1500m à 5 km
500 à 1000 ft
800 à 1500m
200 à 500 ft
< 800m
< 200 ft
Symboles :   Orages  Brouillard  Fortes neiges  Fortes précipitations  Vent > 20 kt






- Altitude de l'aérodrome : 2317 ft
- Code IATA : YXY


CYXY - Whitehorse International

DERNIER METAR :
  • 270300Z 17018KT 25SM FEW030 SCT065 BKN170 OVC230 M04/M06 A2947 RMK SC1SC3AC2CI2 SLP036

METARs EXPIRÉS :
  • 270200Z 16018KT 40SM FEW030 SCT065 BKN180 BKN230 M04/M06 A2947 RMK SC1SC3AC1CI2 SLP037
  • 270100Z 17018KT 40SM FEW030 SCT075 BKN200 M04/M07 A2948 RMK SC1AC2CI4 SLP040

TAF TAF CYXY
Valide du 27 à 00h jusqu'au 27 à 12h UTC


262338Z 2700/2712 18015KT P6SM FEW020 SCT070 BKN120
TEMPO 2700/2708 5SM -SN BKN020 OVC070
FM270800 18010KT P6SM -SN SCT015 BKN050
TEMPO 2708/2712 5SM -SN BKN015 RMK NXT FCST BY 270600Z



MET'MAP, la Météo Aéronautique d'un coup d'oeil ! - Copyright ORBIFLY Décembre 2007 - Disclaimer

ORBIFLY MET'MAP TEAM :

Programmation & Développement : Alexandra Zaïnal
Sur une idée originale de : Baudouin d'Aumeries
Assistance à la programmation : Marc-Olivier Méhu
Soutien technique & logistique : Manuel Goepfert

Contact : metmap@orbifly.com




SOURCES & CREDITS :

   NOAA       Earth
Advisory